CheckWX is a tool to help pilots better visualize weather data.  It is not intended as a substitute for an official pre-flight weather briefing.

04:33:36 UTC

SCCH METAR
Gral. Bernardo O´Higgins Airport
Chillan, Chile
Current

34 mins ago

SCCH 270400Z AUTO 02020KT //// R/////// ///////// 09/07 Q1009
Observed
Jun-27 @ 04:00 UTC
Wind
  • 020° at 20 KTS
Visibility
Temperature
C / 48°F
Dewpoint
C / 45°F
Humidity
87%
Altimeter
29.79" Hg
Pressure
1008.92 hPa
Previous

2 hours ago

SCCH 270300Z AUTO 02018KT //// R/////// RA ///////// 09/08 Q1010
Observed
Jun-27 @ 03:00 UTC
Wind
  • 020° at 18 KTS
Visibility
Conditions
Rain
Temperature
C / 48°F
Dewpoint
C / 46°F
Humidity
94%
Altimeter
29.82" Hg
Pressure
1009.92 hPa
Previous

3 hours ago

SCCH 270200Z AUTO 03019KT //// R/////// -RA ///////// 08/07 Q1010
Observed
Jun-27 @ 02:00 UTC
Wind
  • 030° at 19 KTS
Visibility
Conditions
Light Rain
Temperature
C / 46°F
Dewpoint
C / 45°F
Humidity
93%
Altimeter
29.82" Hg
Pressure
1009.92 hPa